sensor_id;sensor_type;location;lat;lon;timestamp;P1;durP1;ratioP1;P2;durP2;ratioP2
19623;SDS011;9959;49.798;9.928;2024-03-02T00:00:44;67.68;;;31.10;;
19623;SDS011;9959;49.798;9.928;2024-03-02T00:03:15;68.20;;;30.30;;
19623;SDS011;9959;49.798;9.928;2024-03-02T00:05:42;66.10;;;30.95;;
19623;SDS011;9959;49.798;9.928;2024-03-02T00:08:09;66.55;;;28.73;;
19623;SDS011;9959;49.798;9.928;2024-03-02T00:10:39;64.82;;;29.13;;
19623;SDS011;9959;49.798;9.928;2024-03-02T00:13:07;64.72;;;31.30;;
19623;SDS011;9959;49.798;9.928;2024-03-02T00:18:16;67.93;;;29.27;;
19623;SDS011;9959;49.798;9.928;2024-03-02T00:20:46;66.63;;;28.85;;
19623;SDS011;9959;49.798;9.928;2024-03-02T00:23:15;65.50;;;28.50;;
19623;SDS011;9959;49.798;9.928;2024-03-02T00:25:49;74.32;;;28.95;;
19623;SDS011;9959;49.798;9.928;2024-03-02T00:28:20;76.75;;;30.05;;
19623;SDS011;9959;49.798;9.928;2024-03-02T00:30:52;65.78;;;28.73;;
19623;SDS011;9959;49.798;9.928;2024-03-02T00:33:25;65.80;;;28.75;;
19623;SDS011;9959;49.798;9.928;2024-03-02T00:35:54;65.90;;;30.13;;
19623;SDS011;9959;49.798;9.928;2024-03-02T00:38:22;67.78;;;30.60;;
19623;SDS011;9959;49.798;9.928;2024-03-02T00:40:51;66.25;;;29.30;;
19623;SDS011;9959;49.798;9.928;2024-03-02T00:46:12;71.35;;;30.30;;
19623;SDS011;9959;49.798;9.928;2024-03-02T00:48:48;73.72;;;29.98;;
19623;SDS011;9959;49.798;9.928;2024-03-02T00:51:21;67.60;;;30.60;;
19623;SDS011;9959;49.798;9.928;2024-03-02T00:53:50;68.45;;;30.58;;
19623;SDS011;9959;49.798;9.928;2024-03-02T00:56:19;67.35;;;29.90;;
19623;SDS011;9959;49.798;9.928;2024-03-02T00:58:46;72.20;;;31.13;;
19623;SDS011;9959;49.798;9.928;2024-03-02T01:01:19;69.78;;;28.98;;
19623;SDS011;9959;49.798;9.928;2024-03-02T01:03:46;75.40;;;30.70;;
19623;SDS011;9959;49.798;9.928;2024-03-02T01:06:14;67.20;;;29.50;;
19623;SDS011;9959;49.798;9.928;2024-03-02T01:08:42;70.97;;;30.42;;
19623;SDS011;9959;49.798;9.928;2024-03-02T01:11:10;66.88;;;29.23;;
19623;SDS011;9959;49.798;9.928;2024-03-02T01:13:37;67.90;;;28.77;;
19623;SDS011;9959;49.798;9.928;2024-03-02T01:16:04;61.97;;;27.88;;
19623;SDS011;9959;49.798;9.928;2024-03-02T01:18:31;69.75;;;26.98;;
19623;SDS011;9959;49.798;9.928;2024-03-02T01:20:58;64.07;;;27.33;;
19623;SDS011;9959;49.798;9.928;2024-03-02T01:23:25;62.85;;;27.23;;
19623;SDS011;9959;49.798;9.928;2024-03-02T01:25:52;68.63;;;29.95;;
19623;SDS011;9959;49.798;9.928;2024-03-02T01:28:19;68.57;;;29.45;;
19623;SDS011;9959;49.798;9.928;2024-03-02T01:30:47;74.30;;;27.80;;
19623;SDS011;9959;49.798;9.928;2024-03-02T01:33:16;53.78;;;25.13;;
19623;SDS011;9959;49.798;9.928;2024-03-02T01:35:45;65.65;;;27.17;;
19623;SDS011;9959;49.798;9.928;2024-03-02T01:38:18;67.45;;;29.38;;
19623;SDS011;9959;49.798;9.928;2024-03-02T01:40:46;73.63;;;29.70;;
19623;SDS011;9959;49.798;9.928;2024-03-02T01:43:13;67.10;;;29.90;;
19623;SDS011;9959;49.798;9.928;2024-03-02T01:45:40;70.93;;;29.75;;
19623;SDS011;9959;49.798;9.928;2024-03-02T01:48:07;72.57;;;30.40;;
19623;SDS011;9959;49.798;9.928;2024-03-02T01:50:34;66.28;;;29.92;;
19623;SDS011;9959;49.798;9.928;2024-03-02T01:53:02;60.28;;;29.05;;
19623;SDS011;9959;49.798;9.928;2024-03-02T01:55:29;69.72;;;29.17;;
19623;SDS011;9959;49.798;9.928;2024-03-02T01:57:57;68.38;;;30.08;;
19623;SDS011;9959;49.798;9.928;2024-03-02T02:00:25;65.88;;;29.02;;
19623;SDS011;9959;49.798;9.928;2024-03-02T02:02:53;69.60;;;29.02;;
19623;SDS011;9959;49.798;9.928;2024-03-02T02:05:21;61.78;;;27.25;;
19623;SDS011;9959;49.798;9.928;2024-03-02T02:07:49;64.38;;;28.27;;
19623;SDS011;9959;49.798;9.928;2024-03-02T02:10:16;64.78;;;28.25;;
19623;SDS011;9959;49.798;9.928;2024-03-02T02:12:43;61.13;;;27.73;;
19623;SDS011;9959;49.798;9.928;2024-03-02T02:15:26;58.63;;;28.45;;
19623;SDS011;9959;49.798;9.928;2024-03-02T02:17:58;64.63;;;28.30;;
19623;SDS011;9959;49.798;9.928;2024-03-02T02:20:26;66.28;;;28.33;;
19623;SDS011;9959;49.798;9.928;2024-03-02T02:22:59;55.15;;;26.48;;
19623;SDS011;9959;49.798;9.928;2024-03-02T02:25:28;65.15;;;28.52;;
19623;SDS011;9959;49.798;9.928;2024-03-02T02:27:56;64.13;;;27.98;;
19623;SDS011;9959;49.798;9.928;2024-03-02T02:30:26;65.20;;;28.35;;
19623;SDS011;9959;49.798;9.928;2024-03-02T02:32:54;69.50;;;27.65;;
19623;SDS011;9959;49.798;9.928;2024-03-02T02:35:22;72.97;;;29.80;;
19623;SDS011;9959;49.798;9.928;2024-03-02T02:37:51;72.95;;;30.42;;
19623;SDS011;9959;49.798;9.928;2024-03-02T02:40:20;69.13;;;29.38;;
19623;SDS011;9959;49.798;9.928;2024-03-02T02:42:47;73.20;;;29.75;;
19623;SDS011;9959;49.798;9.928;2024-03-02T02:45:15;67.03;;;29.35;;
19623;SDS011;9959;49.798;9.928;2024-03-02T02:47:42;69.18;;;29.50;;
19623;SDS011;9959;49.798;9.928;2024-03-02T02:50:10;67.60;;;29.42;;
19623;SDS011;9959;49.798;9.928;2024-03-02T02:52:40;69.22;;;28.33;;
19623;SDS011;9959;49.798;9.928;2024-03-02T02:55:09;68.80;;;28.90;;
19623;SDS011;9959;49.798;9.928;2024-03-02T02:57:40;67.32;;;29.40;;
19623;SDS011;9959;49.798;9.928;2024-03-02T03:00:14;66.85;;;28.58;;
19623;SDS011;9959;49.798;9.928;2024-03-02T03:02:47;67.70;;;29.00;;
19623;SDS011;9959;49.798;9.928;2024-03-02T03:05:17;68.80;;;28.98;;
19623;SDS011;9959;49.798;9.928;2024-03-02T03:07:44;70.38;;;29.17;;
19623;SDS011;9959;49.798;9.928;2024-03-02T03:10:12;74.80;;;30.10;;
19623;SDS011;9959;49.798;9.928;2024-03-02T03:12:41;69.65;;;29.75;;
19623;SDS011;9959;49.798;9.928;2024-03-02T03:15:11;76.20;;;30.33;;
19623;SDS011;9959;49.798;9.928;2024-03-02T03:17:39;73.95;;;29.70;;
19623;SDS011;9959;49.798;9.928;2024-03-02T03:20:07;78.38;;;31.13;;
19623;SDS011;9959;49.798;9.928;2024-03-02T03:22:38;77.97;;;31.00;;
19623;SDS011;9959;49.798;9.928;2024-03-02T03:25:08;74.72;;;31.30;;
19623;SDS011;9959;49.798;9.928;2024-03-02T03:27:35;73.75;;;30.98;;
19623;SDS011;9959;49.798;9.928;2024-03-02T03:30:06;76.55;;;32.00;;
19623;SDS011;9959;49.798;9.928;2024-03-02T03:32:33;66.80;;;28.90;;
19623;SDS011;9959;49.798;9.928;2024-03-02T03:35:00;79.15;;;30.42;;
19623;SDS011;9959;49.798;9.928;2024-03-02T03:37:28;77.10;;;30.73;;
19623;SDS011;9959;49.798;9.928;2024-03-02T03:40:03;73.03;;;29.10;;
19623;SDS011;9959;49.798;9.928;2024-03-02T03:42:37;77.70;;;30.85;;
19623;SDS011;9959;49.798;9.928;2024-03-02T03:45:06;77.53;;;31.10;;
19623;SDS011;9959;49.798;9.928;2024-03-02T03:47:33;79.40;;;31.40;;
19623;SDS011;9959;49.798;9.928;2024-03-02T03:50:01;78.45;;;29.55;;
19623;SDS011;9959;49.798;9.928;2024-03-02T03:52:31;73.97;;;31.17;;
19623;SDS011;9959;49.798;9.928;2024-03-02T03:54:58;85.63;;;32.20;;
19623;SDS011;9959;49.798;9.928;2024-03-02T03:57:24;77.35;;;29.83;;
19623;SDS011;9959;49.798;9.928;2024-03-02T03:59:52;73.85;;;30.30;;
19623;SDS011;9959;49.798;9.928;2024-03-02T04:02:20;85.82;;;32.92;;
19623;SDS011;9959;49.798;9.928;2024-03-02T04:04:47;82.80;;;31.60;;
19623;SDS011;9959;49.798;9.928;2024-03-02T04:07:14;83.45;;;31.55;;
19623;SDS011;9959;49.798;9.928;2024-03-02T04:09:41;85.97;;;31.30;;
19623;SDS011;9959;49.798;9.928;2024-03-02T04:12:07;87.97;;;31.15;;
19623;SDS011;9959;49.798;9.928;2024-03-02T04:14:35;83.70;;;32.05;;
19623;SDS011;9959;49.798;9.928;2024-03-02T04:17:01;86.07;;;31.92;;
19623;SDS011;9959;49.798;9.928;2024-03-02T04:19:28;86.80;;;33.05;;
19623;SDS011;9959;49.798;9.928;2024-03-02T04:21:55;83.93;;;32.67;;
19623;SDS011;9959;49.798;9.928;2024-03-02T04:24:25;87.25;;;32.97;;
19623;SDS011;9959;49.798;9.928;2024-03-02T04:26:51;89.95;;;31.40;;
19623;SDS011;9959;49.798;9.928;2024-03-02T04:29:19;93.93;;;33.50;;
19623;SDS011;9959;49.798;9.928;2024-03-02T04:31:45;88.80;;;33.38;;
19623;SDS011;9959;49.798;9.928;2024-03-02T04:34:12;85.88;;;33.20;;
19623;SDS011;9959;49.798;9.928;2024-03-02T04:36:39;86.50;;;32.88;;
19623;SDS011;9959;49.798;9.928;2024-03-02T04:39:06;90.93;;;31.95;;
19623;SDS011;9959;49.798;9.928;2024-03-02T04:41:36;91.82;;;34.10;;
19623;SDS011;9959;49.798;9.928;2024-03-02T04:44:03;93.47;;;34.30;;
19623;SDS011;9959;49.798;9.928;2024-03-02T04:46:31;92.68;;;31.52;;
19623;SDS011;9959;49.798;9.928;2024-03-02T04:48:58;91.50;;;33.60;;
19623;SDS011;9959;49.798;9.928;2024-03-02T04:51:25;95.75;;;33.83;;
19623;SDS011;9959;49.798;9.928;2024-03-02T04:53:52;100.10;;;34.22;;
19623;SDS011;9959;49.798;9.928;2024-03-02T04:56:19;98.22;;;33.75;;
19623;SDS011;9959;49.798;9.928;2024-03-02T04:58:54;96.28;;;34.20;;
19623;SDS011;9959;49.798;9.928;2024-03-02T05:01:21;97.10;;;34.03;;
19623;SDS011;9959;49.798;9.928;2024-03-02T05:03:48;101.53;;;33.05;;
19623;SDS011;9959;49.798;9.928;2024-03-02T05:06:15;94.82;;;34.58;;
19623;SDS011;9959;49.798;9.928;2024-03-02T05:08:42;95.00;;;32.28;;
19623;SDS011;9959;49.798;9.928;2024-03-02T05:11:11;100.05;;;33.60;;
19623;SDS011;9959;49.798;9.928;2024-03-02T05:14:17;94.97;;;33.65;;
19623;SDS011;9959;49.798;9.928;2024-03-02T05:16:44;93.40;;;32.17;;
19623;SDS011;9959;49.798;9.928;2024-03-02T05:19:11;95.95;;;33.00;;
19623;SDS011;9959;49.798;9.928;2024-03-02T05:21:38;98.57;;;34.45;;
19623;SDS011;9959;49.798;9.928;2024-03-02T05:24:05;105.57;;;34.75;;
19623;SDS011;9959;49.798;9.928;2024-03-02T05:26:32;89.43;;;31.77;;
19623;SDS011;9959;49.798;9.928;2024-03-02T05:28:59;95.57;;;34.03;;
19623;SDS011;9959;49.798;9.928;2024-03-02T05:31:26;94.40;;;34.28;;
19623;SDS011;9959;49.798;9.928;2024-03-02T05:33:52;96.55;;;33.28;;
19623;SDS011;9959;49.798;9.928;2024-03-02T05:36:23;107.57;;;34.22;;
19623;SDS011;9959;49.798;9.928;2024-03-02T05:38:50;98.35;;;34.05;;
19623;SDS011;9959;49.798;9.928;2024-03-02T05:41:21;97.97;;;33.58;;
19623;SDS011;9959;49.798;9.928;2024-03-02T05:43:49;94.53;;;33.38;;
19623;SDS011;9959;49.798;9.928;2024-03-02T05:46:16;95.60;;;33.35;;
19623;SDS011;9959;49.798;9.928;2024-03-02T05:48:43;98.15;;;33.28;;
19623;SDS011;9959;49.798;9.928;2024-03-02T05:51:10;101.75;;;33.92;;
19623;SDS011;9959;49.798;9.928;2024-03-02T05:53:37;99.38;;;33.08;;
19623;SDS011;9959;49.798;9.928;2024-03-02T05:56:05;105.50;;;33.30;;
19623;SDS011;9959;49.798;9.928;2024-03-02T05:58:32;100.32;;;34.08;;
19623;SDS011;9959;49.798;9.928;2024-03-02T06:01:18;110.15;;;34.08;;
19623;SDS011;9959;49.798;9.928;2024-03-02T06:03:45;109.60;;;34.67;;
19623;SDS011;9959;49.798;9.928;2024-03-02T06:06:12;110.47;;;37.70;;
19623;SDS011;9959;49.798;9.928;2024-03-02T06:08:39;106.18;;;33.53;;
19623;SDS011;9959;49.798;9.928;2024-03-02T06:11:06;102.60;;;35.28;;
19623;SDS011;9959;49.798;9.928;2024-03-02T06:13:33;101.30;;;32.70;;
19623;SDS011;9959;49.798;9.928;2024-03-02T06:16:00;92.22;;;33.95;;
19623;SDS011;9959;49.798;9.928;2024-03-02T06:18:27;105.07;;;33.78;;
19623;SDS011;9959;49.798;9.928;2024-03-02T06:20:54;94.97;;;33.70;;
19623;SDS011;9959;49.798;9.928;2024-03-02T06:23:21;100.55;;;34.70;;
19623;SDS011;9959;49.798;9.928;2024-03-02T06:25:48;87.43;;;32.65;;
19623;SDS011;9959;49.798;9.928;2024-03-02T06:28:15;95.97;;;31.90;;
19623;SDS011;9959;49.798;9.928;2024-03-02T06:30:42;85.75;;;29.63;;
19623;SDS011;9959;49.798;9.928;2024-03-02T06:33:09;85.65;;;31.83;;
19623;SDS011;9959;49.798;9.928;2024-03-02T06:35:36;88.78;;;31.60;;
19623;SDS011;9959;49.798;9.928;2024-03-02T06:38:03;88.82;;;31.58;;
19623;SDS011;9959;49.798;9.928;2024-03-02T06:40:30;88.15;;;30.60;;
19623;SDS011;9959;49.798;9.928;2024-03-02T06:42:58;79.35;;;28.80;;
19623;SDS011;9959;49.798;9.928;2024-03-02T06:45:25;85.97;;;30.63;;
19623;SDS011;9959;49.798;9.928;2024-03-02T06:47:53;77.97;;;28.98;;
19623;SDS011;9959;49.798;9.928;2024-03-02T06:50:20;79.07;;;30.20;;
19623;SDS011;9959;49.798;9.928;2024-03-02T06:52:47;79.78;;;28.30;;
19623;SDS011;9959;49.798;9.928;2024-03-02T06:55:13;72.63;;;27.58;;
19623;SDS011;9959;49.798;9.928;2024-03-02T06:57:40;74.10;;;28.10;;
19623;SDS011;9959;49.798;9.928;2024-03-02T07:00:08;69.05;;;27.30;;
19623;SDS011;9959;49.798;9.928;2024-03-02T07:02:35;72.30;;;29.15;;
19623;SDS011;9959;49.798;9.928;2024-03-02T07:05:03;72.00;;;28.42;;
19623;SDS011;9959;49.798;9.928;2024-03-02T07:07:30;66.53;;;26.10;;
19623;SDS011;9959;49.798;9.928;2024-03-02T07:10:01;64.90;;;25.45;;
19623;SDS011;9959;49.798;9.928;2024-03-02T07:12:28;55.33;;;23.20;;
19623;SDS011;9959;49.798;9.928;2024-03-02T07:14:55;64.53;;;25.90;;
19623;SDS011;9959;49.798;9.928;2024-03-02T07:17:31;59.20;;;24.08;;
19623;SDS011;9959;49.798;9.928;2024-03-02T07:19:58;52.22;;;23.70;;
19623;SDS011;9959;49.798;9.928;2024-03-02T07:22:26;58.05;;;25.52;;
19623;SDS011;9959;49.798;9.928;2024-03-02T07:24:56;55.85;;;24.83;;
19623;SDS011;9959;49.798;9.928;2024-03-02T07:27:49;52.97;;;22.90;;
19623;SDS011;9959;49.798;9.928;2024-03-02T07:30:28;53.10;;;24.30;;
19623;SDS011;9959;49.798;9.928;2024-03-02T07:33:01;53.80;;;23.08;;
19623;SDS011;9959;49.798;9.928;2024-03-02T07:35:40;54.22;;;24.15;;
19623;SDS011;9959;49.798;9.928;2024-03-02T07:38:07;49.97;;;22.23;;
19623;SDS011;9959;49.798;9.928;2024-03-02T07:40:34;50.75;;;22.30;;
19623;SDS011;9959;49.798;9.928;2024-03-02T07:43:02;54.15;;;23.10;;
19623;SDS011;9959;49.798;9.928;2024-03-02T07:45:28;45.28;;;22.70;;
19623;SDS011;9959;49.798;9.928;2024-03-02T07:47:55;47.33;;;21.98;;
19623;SDS011;9959;49.798;9.928;2024-03-02T07:50:22;42.35;;;20.58;;
19623;SDS011;9959;49.798;9.928;2024-03-02T07:52:49;45.50;;;20.38;;
19623;SDS011;9959;49.798;9.928;2024-03-02T07:55:16;44.10;;;20.35;;
19623;SDS011;9959;49.798;9.928;2024-03-02T07:57:44;41.05;;;20.20;;
19623;SDS011;9959;49.798;9.928;2024-03-02T08:00:11;39.95;;;18.40;;
19623;SDS011;9959;49.798;9.928;2024-03-02T08:02:38;36.28;;;18.08;;
19623;SDS011;9959;49.798;9.928;2024-03-02T08:05:06;36.58;;;18.73;;
19623;SDS011;9959;49.798;9.928;2024-03-02T08:07:36;40.08;;;19.77;;
19623;SDS011;9959;49.798;9.928;2024-03-02T08:10:04;36.05;;;18.23;;
19623;SDS011;9959;49.798;9.928;2024-03-02T08:12:32;38.03;;;17.98;;
19623;SDS011;9959;49.798;9.928;2024-03-02T08:14:59;36.42;;;18.98;;
19623;SDS011;9959;49.798;9.928;2024-03-02T08:17:26;36.25;;;18.38;;
19623;SDS011;9959;49.798;9.928;2024-03-02T08:19:54;38.28;;;19.30;;
19623;SDS011;9959;49.798;9.928;2024-03-02T08:22:21;34.03;;;17.98;;
19623;SDS011;9959;49.798;9.928;2024-03-02T08:24:49;35.63;;;19.00;;
19623;SDS011;9959;49.798;9.928;2024-03-02T08:27:17;35.85;;;17.35;;
19623;SDS011;9959;49.798;9.928;2024-03-02T08:29:44;33.65;;;17.42;;
19623;SDS011;9959;49.798;9.928;2024-03-02T08:32:11;33.42;;;17.77;;
19623;SDS011;9959;49.798;9.928;2024-03-02T08:34:38;34.67;;;17.85;;
19623;SDS011;9959;49.798;9.928;2024-03-02T08:37:05;33.08;;;16.92;;
19623;SDS011;9959;49.798;9.928;2024-03-02T08:39:32;31.67;;;17.25;;
19623;SDS011;9959;49.798;9.928;2024-03-02T08:41:58;33.33;;;17.90;;
19623;SDS011;9959;49.798;9.928;2024-03-02T08:44:29;31.05;;;17.35;;
19623;SDS011;9959;49.798;9.928;2024-03-02T08:46:56;32.13;;;16.95;;
19623;SDS011;9959;49.798;9.928;2024-03-02T08:49:23;34.30;;;17.60;;
19623;SDS011;9959;49.798;9.928;2024-03-02T08:51:50;36.38;;;19.13;;
19623;SDS011;9959;49.798;9.928;2024-03-02T08:54:22;28.83;;;16.42;;
19623;SDS011;9959;49.798;9.928;2024-03-02T08:56:49;33.22;;;16.67;;
19623;SDS011;9959;49.798;9.928;2024-03-02T08:59:16;31.38;;;16.70;;
19623;SDS011;9959;49.798;9.928;2024-03-02T09:01:45;30.30;;;16.58;;
19623;SDS011;9959;49.798;9.928;2024-03-02T09:04:12;30.80;;;16.88;;
19623;SDS011;9959;49.798;9.928;2024-03-02T09:06:39;30.95;;;16.80;;
19623;SDS011;9959;49.798;9.928;2024-03-02T09:09:06;29.67;;;16.65;;
19623;SDS011;9959;49.798;9.928;2024-03-02T09:11:33;32.88;;;16.40;;
19623;SDS011;9959;49.798;9.928;2024-03-02T09:14:01;27.92;;;15.98;;
19623;SDS011;9959;49.798;9.928;2024-03-02T09:16:27;31.15;;;15.43;;
19623;SDS011;9959;49.798;9.928;2024-03-02T09:18:57;28.17;;;15.05;;
19623;SDS011;9959;49.798;9.928;2024-03-02T09:21:24;30.60;;;15.90;;
19623;SDS011;9959;49.798;9.928;2024-03-02T09:23:52;26.30;;;15.30;;
19623;SDS011;9959;49.798;9.928;2024-03-02T09:26:19;27.17;;;14.52;;
19623;SDS011;9959;49.798;9.928;2024-03-02T09:28:50;28.20;;;15.20;;
19623;SDS011;9959;49.798;9.928;2024-03-02T09:31:17;27.10;;;15.52;;
19623;SDS011;9959;49.798;9.928;2024-03-02T09:33:44;26.20;;;15.00;;
19623;SDS011;9959;49.798;9.928;2024-03-02T09:36:21;27.55;;;15.35;;
19623;SDS011;9959;49.798;9.928;2024-03-02T09:38:49;26.98;;;16.00;;
19623;SDS011;9959;49.798;9.928;2024-03-02T09:41:16;27.80;;;14.88;;
19623;SDS011;9959;49.798;9.928;2024-03-02T09:43:43;26.83;;;15.02;;
19623;SDS011;9959;49.798;9.928;2024-03-02T09:46:10;26.55;;;15.35;;
19623;SDS011;9959;49.798;9.928;2024-03-02T09:48:38;26.63;;;14.82;;
19623;SDS011;9959;49.798;9.928;2024-03-02T09:51:05;25.15;;;15.02;;
19623;SDS011;9959;49.798;9.928;2024-03-02T09:53:33;25.73;;;15.07;;
19623;SDS011;9959;49.798;9.928;2024-03-02T09:56:01;28.38;;;14.35;;
19623;SDS011;9959;49.798;9.928;2024-03-02T09:58:28;25.13;;;14.02;;
19623;SDS011;9959;49.798;9.928;2024-03-02T10:00:55;27.02;;;15.57;;
19623;SDS011;9959;49.798;9.928;2024-03-02T10:03:23;26.60;;;15.00;;
19623;SDS011;9959;49.798;9.928;2024-03-02T10:05:53;27.60;;;14.77;;
19623;SDS011;9959;49.798;9.928;2024-03-02T10:08:20;26.15;;;14.95;;
19623;SDS011;9959;49.798;9.928;2024-03-02T10:10:47;24.85;;;14.55;;
19623;SDS011;9959;49.798;9.928;2024-03-02T10:13:14;26.13;;;15.02;;
19623;SDS011;9959;49.798;9.928;2024-03-02T10:15:43;23.83;;;14.02;;
19623;SDS011;9959;49.798;9.928;2024-03-02T10:18:10;22.42;;;13.32;;
19623;SDS011;9959;49.798;9.928;2024-03-02T10:20:44;25.13;;;13.82;;
19623;SDS011;9959;49.798;9.928;2024-03-02T10:23:16;21.30;;;13.30;;
19623;SDS011;9959;49.798;9.928;2024-03-02T10:25:44;21.15;;;13.48;;
19623;SDS011;9959;49.798;9.928;2024-03-02T10:28:23;20.90;;;12.70;;
19623;SDS011;9959;49.798;9.928;2024-03-02T10:30:51;20.73;;;12.73;;
19623;SDS011;9959;49.798;9.928;2024-03-02T10:33:20;20.70;;;12.90;;
19623;SDS011;9959;49.798;9.928;2024-03-02T10:35:47;20.85;;;12.20;;
19623;SDS011;9959;49.798;9.928;2024-03-02T10:38:16;19.25;;;11.95;;
19623;SDS011;9959;49.798;9.928;2024-03-02T10:40:46;19.58;;;12.23;;
19623;SDS011;9959;49.798;9.928;2024-03-02T10:43:15;22.92;;;12.43;;
19623;SDS011;9959;49.798;9.928;2024-03-02T10:45:42;21.25;;;13.23;;
19623;SDS011;9959;49.798;9.928;2024-03-02T10:48:11;17.45;;;11.82;;
19623;SDS011;9959;49.798;9.928;2024-03-02T10:50:38;18.80;;;11.65;;
19623;SDS011;9959;49.798;9.928;2024-03-02T10:53:05;20.13;;;12.63;;
19623;SDS011;9959;49.798;9.928;2024-03-02T10:55:32;20.55;;;12.10;;
19623;SDS011;9959;49.798;9.928;2024-03-02T10:58:00;19.20;;;11.48;;
19623;SDS011;9959;49.798;9.928;2024-03-02T11:00:33;18.67;;;11.00;;
19623;SDS011;9959;49.798;9.928;2024-03-02T11:03:05;17.38;;;11.57;;
19623;SDS011;9959;49.798;9.928;2024-03-02T11:05:33;19.05;;;11.48;;
19623;SDS011;9959;49.798;9.928;2024-03-02T11:08:08;17.30;;;10.57;;
19623;SDS011;9959;49.798;9.928;2024-03-02T11:10:46;20.30;;;11.85;;
19623;SDS011;9959;49.798;9.928;2024-03-02T11:13:20;20.67;;;11.48;;
19623;SDS011;9959;49.798;9.928;2024-03-02T11:15:51;19.55;;;11.30;;
19623;SDS011;9959;49.798;9.928;2024-03-02T11:18:22;16.95;;;10.18;;
19623;SDS011;9959;49.798;9.928;2024-03-02T11:20:50;17.25;;;10.23;;
19623;SDS011;9959;49.798;9.928;2024-03-02T11:23:18;15.00;;;9.75;;
19623;SDS011;9959;49.798;9.928;2024-03-02T11:26:16;15.07;;;10.35;;
19623;SDS011;9959;49.798;9.928;2024-03-02T11:28:46;15.45;;;10.35;;
19623;SDS011;9959;49.798;9.928;2024-03-02T11:31:14;14.63;;;10.57;;
19623;SDS011;9959;49.798;9.928;2024-03-02T11:33:41;14.63;;;10.10;;
19623;SDS011;9959;49.798;9.928;2024-03-02T11:36:09;15.70;;;10.35;;
19623;SDS011;9959;49.798;9.928;2024-03-02T11:38:38;15.75;;;10.52;;
19623;SDS011;9959;49.798;9.928;2024-03-02T11:41:06;13.90;;;9.60;;
19623;SDS011;9959;49.798;9.928;2024-03-02T11:43:38;14.38;;;9.88;;
19623;SDS011;9959;49.798;9.928;2024-03-02T11:46:08;13.57;;;9.35;;
19623;SDS011;9959;49.798;9.928;2024-03-02T11:48:36;14.57;;;10.40;;
19623;SDS011;9959;49.798;9.928;2024-03-02T11:51:04;11.90;;;8.93;;
19623;SDS011;9959;49.798;9.928;2024-03-02T11:53:31;13.05;;;9.07;;
19623;SDS011;9959;49.798;9.928;2024-03-02T11:56:02;13.63;;;8.80;;
19623;SDS011;9959;49.798;9.928;2024-03-02T11:58:29;12.40;;;9.00;;
19623;SDS011;9959;49.798;9.928;2024-03-02T12:00:57;11.23;;;8.55;;
19623;SDS011;9959;49.798;9.928;2024-03-02T12:03:25;11.88;;;8.02;;
19623;SDS011;9959;49.798;9.928;2024-03-02T12:05:53;10.18;;;7.60;;
19623;SDS011;9959;49.798;9.928;2024-03-02T12:08:20;10.27;;;7.60;;
19623;SDS011;9959;49.798;9.928;2024-03-02T12:11:00;16.20;;;8.38;;
19623;SDS011;9959;49.798;9.928;2024-03-02T12:13:30;10.38;;;7.60;;
19623;SDS011;9959;49.798;9.928;2024-03-02T12:15:58;11.85;;;7.57;;
19623;SDS011;9959;49.798;9.928;2024-03-02T12:18:25;10.30;;;7.63;;
19623;SDS011;9959;49.798;9.928;2024-03-02T12:20:53;9.15;;;7.35;;
19623;SDS011;9959;49.798;9.928;2024-03-02T12:23:24;9.32;;;6.93;;
19623;SDS011;9959;49.798;9.928;2024-03-02T12:25:51;8.45;;;7.18;;
19623;SDS011;9959;49.798;9.928;2024-03-02T12:28:19;9.88;;;7.35;;
19623;SDS011;9959;49.798;9.928;2024-03-02T12:30:47;9.32;;;7.20;;
19623;SDS011;9959;49.798;9.928;2024-03-02T12:33:16;8.23;;;6.68;;
19623;SDS011;9959;49.798;9.928;2024-03-02T12:35:43;9.73;;;6.65;;
19623;SDS011;9959;49.798;9.928;2024-03-02T12:38:10;8.73;;;6.63;;
19623;SDS011;9959;49.798;9.928;2024-03-02T12:40:38;9.05;;;6.35;;
19623;SDS011;9959;49.798;9.928;2024-03-02T12:43:05;8.57;;;5.90;;
19623;SDS011;9959;49.798;9.928;2024-03-02T12:45:34;8.82;;;5.82;;
19623;SDS011;9959;49.798;9.928;2024-03-02T12:48:01;6.65;;;5.63;;
19623;SDS011;9959;49.798;9.928;2024-03-02T12:50:30;7.35;;;5.70;;
19623;SDS011;9959;49.798;9.928;2024-03-02T12:52:58;7.25;;;5.70;;
19623;SDS011;9959;49.798;9.928;2024-03-02T12:55:25;8.32;;;5.53;;
19623;SDS011;9959;49.798;9.928;2024-03-02T12:57:52;7.13;;;5.53;;
19623;SDS011;9959;49.798;9.928;2024-03-02T13:00:21;8.20;;;6.30;;
19623;SDS011;9959;49.798;9.928;2024-03-02T13:02:49;8.27;;;6.38;;
19623;SDS011;9959;49.798;9.928;2024-03-02T13:05:18;10.30;;;6.45;;
19623;SDS011;9959;49.798;9.928;2024-03-02T13:07:47;7.50;;;6.40;;
19623;SDS011;9959;49.798;9.928;2024-03-02T13:10:15;7.90;;;5.60;;
19623;SDS011;9959;49.798;9.928;2024-03-02T13:12:43;6.93;;;5.18;;
19623;SDS011;9959;49.798;9.928;2024-03-02T13:15:14;7.55;;;5.10;;
19623;SDS011;9959;49.798;9.928;2024-03-02T13:17:46;6.22;;;4.40;;
19623;SDS011;9959;49.798;9.928;2024-03-02T13:20:14;6.60;;;4.70;;
19623;SDS011;9959;49.798;9.928;2024-03-02T13:22:41;8.27;;;4.65;;
19623;SDS011;9959;49.798;9.928;2024-03-02T13:25:08;6.93;;;5.07;;
19623;SDS011;9959;49.798;9.928;2024-03-02T13:27:38;7.13;;;5.20;;
19623;SDS011;9959;49.798;9.928;2024-03-02T13:30:05;5.70;;;5.05;;
19623;SDS011;9959;49.798;9.928;2024-03-02T13:32:33;7.20;;;5.85;;
19623;SDS011;9959;49.798;9.928;2024-03-02T13:35:00;8.50;;;6.00;;
19623;SDS011;9959;49.798;9.928;2024-03-02T13:37:27;8.05;;;5.30;;
19623;SDS011;9959;49.798;9.928;2024-03-02T13:39:54;6.95;;;5.22;;
19623;SDS011;9959;49.798;9.928;2024-03-02T13:42:21;6.30;;;4.78;;
19623;SDS011;9959;49.798;9.928;2024-03-02T13:44:48;8.50;;;5.65;;
19623;SDS011;9959;49.798;9.928;2024-03-02T13:47:17;8.23;;;5.78;;
19623;SDS011;9959;49.798;9.928;2024-03-02T13:49:44;8.70;;;6.07;;
19623;SDS011;9959;49.798;9.928;2024-03-02T13:52:13;8.98;;;6.28;;
19623;SDS011;9959;49.798;9.928;2024-03-02T13:54:46;9.45;;;6.78;;
19623;SDS011;9959;49.798;9.928;2024-03-02T13:57:14;8.18;;;6.03;;
19623;SDS011;9959;49.798;9.928;2024-03-02T13:59:44;9.02;;;5.97;;
19623;SDS011;9959;49.798;9.928;2024-03-02T14:02:12;10.10;;;6.25;;
19623;SDS011;9959;49.798;9.928;2024-03-02T14:04:39;7.88;;;6.28;;
19623;SDS011;9959;49.798;9.928;2024-03-02T14:07:06;8.20;;;6.50;;
19623;SDS011;9959;49.798;9.928;2024-03-02T14:09:35;8.27;;;6.50;;
19623;SDS011;9959;49.798;9.928;2024-03-02T14:12:03;7.22;;;5.70;;
19623;SDS011;9959;49.798;9.928;2024-03-02T14:14:32;8.60;;;6.30;;
19623;SDS011;9959;49.798;9.928;2024-03-02T14:16:59;9.00;;;5.55;;
19623;SDS011;9959;49.798;9.928;2024-03-02T14:19:33;7.75;;;4.97;;
19623;SDS011;9959;49.798;9.928;2024-03-02T14:22:00;6.28;;;4.88;;
19623;SDS011;9959;49.798;9.928;2024-03-02T14:24:27;5.13;;;3.70;;
19623;SDS011;9959;49.798;9.928;2024-03-02T14:26:56;4.32;;;3.92;;
19623;SDS011;9959;49.798;9.928;2024-03-02T14:29:45;3.72;;;2.92;;
19623;SDS011;9959;49.798;9.928;2024-03-02T14:32:12;3.55;;;2.97;;
19623;SDS011;9959;49.798;9.928;2024-03-02T14:34:39;2.95;;;2.65;;
19623;SDS011;9959;49.798;9.928;2024-03-02T14:37:06;2.40;;;2.15;;
19623;SDS011;9959;49.798;9.928;2024-03-02T14:39:34;3.47;;;2.25;;
19623;SDS011;9959;49.798;9.928;2024-03-02T14:42:03;3.40;;;2.63;;
19623;SDS011;9959;49.798;9.928;2024-03-02T14:44:30;3.40;;;2.20;;
19623;SDS011;9959;49.798;9.928;2024-03-02T14:46:57;5.80;;;2.58;;
19623;SDS011;9959;49.798;9.928;2024-03-02T14:49:29;4.60;;;2.30;;
19623;SDS011;9959;49.798;9.928;2024-03-02T14:51:56;3.70;;;1.80;;